McConnell AFB, Kansas
Current Conditions -  °F | °C
As of 7:54 AM on Thursday 30 Oct 2014 (Local Time) from KWLD Reporting Station
Clear Clear  
Wind Chill: 51°   Ceiling: Unl
Heat Index: 51°   Visibility: 10mi
Dew Point: 39°   Wind: 12mph
Humidity: 63%   Direction: 210°SSW
Pressure: 30.08"   Gusts: NA
Location:  37.38°N, 97.15°W
Report Text: KWLD 301254Z AUTO 21010KT 10SM CLR 11/04 A3008 RMK AO2 SLP186 T01060039
Loading
Personal Weather Stations






























Interactive Weather Map New forecast layout! Learn more

10-Day Weather Forecast

Advertisements
Track Severe Weather on mobile